This is the latest recevied weather packets stored in our database for station/object YPDN. If no packets are shown the sender has not sent any weather packets the latest 10 day(s).
| Time | Temp. | Humidity | Pressure | Rain* | Wind** | Luminosity | Snow |
|---|---|---|---|---|---|---|---|
| 1778240628 | 25° C | 69% | 1012 hPa | - | - | - | - |
| 1778240025 | 25.56° C | 65% | 1012 hPa | - | - | - | - |
| 1778239429 | 25.56° C | 65% | 1012 hPa | - | - | - | - |
| 1778238829 | 25.56° C | 65% | 1012 hPa | - | - | - | - |
| 1778238228 | 25° C | 73% | 1011 hPa | - | - | - | - |
| 1778237631 | 25° C | 73% | 1011 hPa | - | - | - | - |
| 1778237029 | 25° C | 73% | 1011 hPa | - | - | - | - |
| 1778236428 | 25.56° C | 69% | 1011 hPa | - | - | - | - |
| 1778235830 | 25.56° C | 69% | 1011 hPa | - | - | - | - |
| 1778235229 | 25.56° C | 69% | 1011 hPa | - | - | - | - |
| 1778234628 | 26.67° C | 61% | 1011 hPa | - | - | - | - |
| 1778234028 | 26.67° C | 61% | 1011 hPa | - | - | - | - |
| 1778233431 | 26.67° C | 61% | 1011 hPa | - | - | - | - |
| 1778232829 | 28.89° C | 51% | 1010 hPa | - | - | - | - |
| 1778232230 | 28.89° C | 51% | 1010 hPa | - | - | - | - |
| 1778231630 | 28.89° C | 51% | 1010 hPa | - | - | - | - |
| 1778231028 | 30° C | 48% | 1010 hPa | - | - | - | - |
| 1778230428 | 30° C | 48% | 1010 hPa | - | - | - | - |
| 1778229830 | 30° C | 48% | 1010 hPa | - | - | - | - |
| 1778229228 | 30.56° C | 45% | 1010 hPa | - | - | - | - |
| 1778228625 | 30.56° C | 45% | 1010 hPa | - | - | - | - |
| 1778228027 | 30.56° C | 45% | 1010 hPa | - | - | - | - |
| 1778227430 | 30.56° C | 43% | 1010 hPa | - | - | - | - |
| 1778226827 | 30.56° C | 43% | 1010 hPa | - | - | - | - |
| 1778226231 | 30.56° C | 43% | 1010 hPa | - | - | - | - |
* Rain since midnight (hover to see other rain measurements)
** Current wind speed in m/s (hover to see current wind gust speed)